Terminal Aerodrome Forecast
Issued by NWS Columbia, SC

Home | Current Version | Previous Version | Text Only | Print | Product List | Glossary On
Versions: 1 2 3 4 5 6 7 8 9 10 11 12 13 14 15 16 17 18 19 20 21 22 23 24 25 26 27 28 29 30 31 32 33 34 35 36 37 38 39
000
FTAK31 PAJN 241100
TAFAGS
TAF
PAGS 241128Z 2412/2512 24003KT P6SM VCSH OVC040
     FM241800 18004KT P6SM FEW025 OVC050
     FM250200 19005KT P6SM VCSH SCT025 OVC035
     FM250800 24004KT 4SM -RA BR SCT012 OVC025
      AMD NOT SKED=

USA.gov is the U.S. government's official web portal to all federal, state and local government web resources and services.